Time;durP1;ratioP1;P1;durP2;ratioP2;P2;SDS_P1;SDS_P2;PMS_P1;PMS_P2;Temp;Humidity;BMP_temperature;BMP_pressure;BME280_temperature;BME280_humidity;BME280_pressure;Samples;Min_cycle;Max_cycle;Signal;HPM_P1;HPM_P2
2023/06/23 00:01:12;;;;;;;3.20;2.65;;;;;;;;;;5063962;28;42817;-26
2023/06/23 00:03:40;;;;;;;3.85;2.40;;;;;;;;;;5060954;28;43620;-26
2023/06/23 00:06:10;;;;;;;3.30;2.70;;;;;;;;;;5059292;28;43040;-26
2023/06/23 00:08:39;;;;;;;3.28;2.60;;;;;;;;;;5062375;28;44507;-26
2023/06/23 00:11:07;;;;;;;3.00;2.38;;;;;;;;;;5062265;28;40091;-26
2023/06/23 00:13:35;;;;;;;3.13;2.67;;;;;;;;;;5064638;28;42878;-26
2023/06/23 00:16:04;;;;;;;3.08;2.40;;;;;;;;;;5066544;28;43454;-27
2023/06/23 00:18:32;;;;;;;2.92;2.20;;;;;;;;;;5066065;28;40229;-26
2023/06/23 00:21:00;;;;;;;2.50;2.30;;;;;;;;;;5065786;28;43763;-26
2023/06/23 00:23:30;;;;;;;3.50;2.40;;;;;;;;;;5065691;28;43936;-26
2023/06/23 00:25:58;;;;;;;3.00;2.03;;;;;;;;;;5067163;28;42097;-26
2023/06/23 00:28:28;;;;;;;4.47;2.50;;;;;;;;;;5064242;28;43894;-26
2023/06/23 00:30:56;;;;;;;3.22;2.25;;;;;;;;;;5063281;28;42248;-26
2023/06/23 00:33:24;;;;;;;2.72;2.47;;;;;;;;;;5062936;28;41167;-26
2023/06/23 00:35:53;;;;;;;3.30;2.45;;;;;;;;;;5066294;28;43417;-26
2023/06/23 00:38:21;;;;;;;2.90;2.60;;;;;;;;;;5065614;28;40075;-25
2023/06/23 00:40:52;;;;;;;2.88;2.53;;;;;;;;;;5064308;28;41818;-27
2023/06/23 00:43:21;;;;;;;2.83;2.08;;;;;;;;;;5063163;28;43448;-26
2023/06/23 00:45:49;;;;;;;3.80;2.60;;;;;;;;;;5064837;28;40484;-26
2023/06/23 00:48:18;;;;;;;2.83;2.30;;;;;;;;;;5064563;28;42789;-26
2023/06/23 00:50:45;;;;;;;2.65;2.35;;;;;;;;;;5063162;28;38887;-26
2023/06/23 00:53:13;;;;;;;2.95;2.58;;;;;;;;;;5065408;28;42124;-27
2023/06/23 00:55:41;;;;;;;3.38;2.50;;;;;;;;;;5065200;28;44322;-26
2023/06/23 00:58:14;;;;;;;3.15;2.13;;;;;;;;;;5064840;28;39885;-26
2023/06/23 01:00:42;;;;;;;3.47;2.50;;;;;;;;;;5064255;28;43074;-26
2023/06/23 01:03:10;;;;;;;3.35;2.58;;;;;;;;;;5065626;28;43326;-26
2023/06/23 01:05:39;;;;;;;2.58;2.22;;;;;;;;;;5063885;28;40919;-26
2023/06/23 01:08:11;;;;;;;2.60;2.25;;;;;;;;;;5056123;28;42444;-27
2023/06/23 01:10:40;;;;;;;2.97;2.63;;;;;;;;;;5065018;28;42395;-26
2023/06/23 01:13:11;;;;;;;3.45;2.70;;;;;;;;;;5063202;28;41269;-26
2023/06/23 01:15:42;;;;;;;3.10;2.65;;;;;;;;;;5063946;28;41979;-26
2023/06/23 01:18:11;;;;;;;2.85;2.47;;;;;;;;;;5062353;28;40685;-28
2023/06/23 01:20:39;;;;;;;2.80;2.45;;;;;;;;;;5064977;28;42437;-27
2023/06/23 01:23:16;;;;;;;3.78;2.50;;;;;;;;;;5059972;28;43630;-26
2023/06/23 01:25:47;;;;;;;3.20;2.40;;;;;;;;;;5066095;28;41012;-31
2023/06/23 01:28:17;;;;;;;3.17;2.40;;;;;;;;;;5060931;28;43569;-28
2023/06/23 01:30:47;;;;;;;2.78;2.20;;;;;;;;;;5064734;28;42620;-26
2023/06/23 01:33:16;;;;;;;2.35;2.15;;;;;;;;;;5067083;28;40453;-26
2023/06/23 01:35:46;;;;;;;2.70;2.50;;;;;;;;;;5064496;28;43800;-27
2023/06/23 01:38:15;;;;;;;3.03;2.25;;;;;;;;;;5066711;28;39776;-26
2023/06/23 01:40:43;;;;;;;2.90;2.50;;;;;;;;;;5063421;28;41259;-27
2023/06/23 01:43:11;;;;;;;2.65;2.40;;;;;;;;;;5066098;28;43541;-27
2023/06/23 01:45:40;;;;;;;3.03;2.72;;;;;;;;;;5064454;28;40979;-26
2023/06/23 01:48:11;;;;;;;2.85;2.40;;;;;;;;;;5066827;28;43449;-26
2023/06/23 01:50:39;;;;;;;4.38;2.38;;;;;;;;;;5062210;28;43150;-27
2023/06/23 01:53:07;;;;;;;2.97;2.67;;;;;;;;;;5061053;28;40022;-25
2023/06/23 01:55:35;;;;;;;3.25;2.30;;;;;;;;;;5065578;28;44654;-27
2023/06/23 01:58:04;;;;;;;2.90;2.40;;;;;;;;;;5064144;28;40436;-26
2023/06/23 02:00:32;;;;;;;2.58;2.38;;;;;;;;;;5062830;28;41245;-26
2023/06/23 02:03:00;;;;;;;2.90;2.42;;;;;;;;;;5065566;28;44636;-28
2023/06/23 02:05:29;;;;;;;2.90;2.50;;;;;;;;;;5062326;28;39772;-27
2023/06/23 02:07:58;;;;;;;3.85;2.10;;;;;;;;;;5065475;28;42389;-26
2023/06/23 02:10:27;;;;;;;2.83;2.53;;;;;;;;;;5064960;28;43043;-26
2023/06/23 02:12:55;;;;;;;2.70;2.50;;;;;;;;;;5058261;28;40218;-27
2023/06/23 02:15:23;;;;;;;2.30;2.10;;;;;;;;;;5063251;28;41034;-30
2023/06/23 02:17:51;;;;;;;4.05;2.60;;;;;;;;;;5066618;28;39338;-26
2023/06/23 02:20:20;;;;;;;6.65;2.80;;;;;;;;;;5061689;28;41007;-26
2023/06/23 02:22:49;;;;;;;3.72;2.50;;;;;;;;;;5066355;28;45928;-26
2023/06/23 02:25:18;;;;;;;2.55;2.35;;;;;;;;;;5064748;28;41797;-26
2023/06/23 02:27:47;;;;;;;2.40;2.20;;;;;;;;;;5064625;28;42497;-26
2023/06/23 02:30:16;;;;;;;3.22;2.75;;;;;;;;;;5052711;28;42778;-26
2023/06/23 02:32:44;;;;;;;2.42;2.22;;;;;;;;;;5057588;28;40452;-26
2023/06/23 02:35:13;;;;;;;3.20;2.28;;;;;;;;;;5064437;28;43254;-26
2023/06/23 02:37:42;;;;;;;2.55;2.35;;;;;;;;;;5063734;28;43318;-26
2023/06/23 02:40:16;;;;;;;5.43;2.70;;;;;;;;;;5063932;28;41916;-26
2023/06/23 02:42:45;;;;;;;2.80;2.45;;;;;;;;;;5061949;28;43412;-26
2023/06/23 02:45:15;;;;;;;2.92;2.30;;;;;;;;;;5068192;28;39884;-26
2023/06/23 02:47:43;;;;;;;2.80;2.42;;;;;;;;;;5063793;28;42270;-27
2023/06/23 02:50:11;;;;;;;4.90;2.60;;;;;;;;;;5065400;28;43870;-26
2023/06/23 02:52:42;;;;;;;2.95;2.60;;;;;;;;;;5064075;28;40340;-26
2023/06/23 02:55:10;;;;;;;2.83;2.50;;;;;;;;;;5060459;28;42115;-26
2023/06/23 02:57:39;;;;;;;3.05;2.60;;;;;;;;;;5063857;28;43049;-26
2023/06/23 03:00:19;;;;;;;2.90;2.60;;;;;;;;;;5065052;28;41390;-27
2023/06/23 03:02:47;;;;;;;2.78;2.58;;;;;;;;;;5064547;28;45004;-26
2023/06/23 03:05:16;;;;;;;3.45;2.88;;;;;;;;;;5064072;28;41135;-26
2023/06/23 03:07:44;;;;;;;3.53;2.83;;;;;;;;;;5064814;28;43378;-26
2023/06/23 03:10:12;;;;;;;3.80;2.88;;;;;;;;;;5063466;28;44445;-27
2023/06/23 03:12:41;;;;;;;3.33;2.67;;;;;;;;;;5063759;28;40473;-27
2023/06/23 03:15:09;;;;;;;2.92;2.60;;;;;;;;;;5064698;28;42292;-26
2023/06/23 03:17:38;;;;;;;4.15;2.83;;;;;;;;;;5062800;28;44471;-26
2023/06/23 03:20:07;;;;;;;2.90;2.47;;;;;;;;;;5065108;28;40513;-27
2023/06/23 03:22:36;;;;;;;2.72;2.53;;;;;;;;;;5061617;28;43638;-28
2023/06/23 03:25:06;;;;;;;2.92;2.58;;;;;;;;;;5063263;28;40212;-27
2023/06/23 03:27:34;;;;;;;3.70;2.83;;;;;;;;;;5062959;28;42544;-27
2023/06/23 03:30:05;;;;;;;5.28;2.90;;;;;;;;;;5062244;28;41941;-27
2023/06/23 03:32:34;;;;;;;4.82;2.90;;;;;;;;;;5061641;28;39871;-26
2023/06/23 03:35:03;;;;;;;3.22;2.90;;;;;;;;;;5062541;28;40965;-26
2023/06/23 03:37:31;;;;;;;3.20;2.90;;;;;;;;;;5063156;28;44127;-26
2023/06/23 03:40:00;;;;;;;3.42;2.80;;;;;;;;;;5063116;28;41371;-26
2023/06/23 03:42:28;;;;;;;3.17;2.88;;;;;;;;;;5063695;28;42738;-26
2023/06/23 03:44:56;;;;;;;3.95;2.90;;;;;;;;;;5063033;28;32176;-26
2023/06/23 03:47:26;;;;;;;3.13;2.83;;;;;;;;;;5062630;28;43321;-27
2023/06/23 03:49:55;;;;;;;3.90;3.25;;;;;;;;;;5063477;28;42891;-26
2023/06/23 03:52:24;;;;;;;5.80;3.28;;;;;;;;;;5063241;28;40950;-25
2023/06/23 03:54:53;;;;;;;3.67;3.28;;;;;;;;;;5064126;28;42307;-26
2023/06/23 03:57:22;;;;;;;3.67;3.08;;;;;;;;;;5063863;28;43156;-27
2023/06/23 03:59:50;;;;;;;3.28;2.97;;;;;;;;;;5063931;28;40091;-26
2023/06/23 04:02:20;;;;;;;3.35;3.05;;;;;;;;;;5062959;28;42437;-25
2023/06/23 04:04:49;;;;;;;3.50;3.20;;;;;;;;;;5063943;28;43958;-27
2023/06/23 04:07:18;;;;;;;3.92;3.30;;;;;;;;;;5063443;28;42672;-26
2023/06/23 04:09:46;;;;;;;4.78;3.30;;;;;;;;;;5064091;28;43610;-31
2023/06/23 04:12:14;;;;;;;4.22;3.42;;;;;;;;;;5062317;28;40080;-26
2023/06/23 04:14:44;;;;;;;3.75;3.25;;;;;;;;;;5063511;28;42566;-27
2023/06/23 04:17:12;;;;;;;3.45;3.15;;;;;;;;;;5063427;28;44398;-26
2023/06/23 04:19:40;;;;;;;4.20;3.20;;;;;;;;;;5060281;28;40613;-26
2023/06/23 04:22:10;;;;;;;3.65;2.88;;;;;;;;;;5061820;28;43492;-26
2023/06/23 04:24:38;;;;;;;3.88;3.47;;;;;;;;;;5061542;28;44450;-28
2023/06/23 04:27:06;;;;;;;5.07;3.30;;;;;;;;;;5064612;28;41779;-26
2023/06/23 04:29:35;;;;;;;3.58;3.28;;;;;;;;;;5060676;28;44028;-26
2023/06/23 04:32:04;;;;;;;4.85;3.75;;;;;;;;;;5062896;28;40748;-26
2023/06/23 04:34:32;;;;;;;3.60;3.30;;;;;;;;;;5059576;28;41925;-28
2023/06/23 04:37:02;;;;;;;3.65;3.35;;;;;;;;;;5063604;28;43605;-27
2023/06/23 04:39:34;;;;;;;4.43;4.00;;;;;;;;;;5057790;28;42455;-26
2023/06/23 04:42:03;;;;;;;4.10;3.70;;;;;;;;;;5059781;28;42614;-26
2023/06/23 04:44:32;;;;;;;3.63;3.33;;;;;;;;;;5062562;28;44493;-26
2023/06/23 04:47:01;;;;;;;4.25;3.60;;;;;;;;;;5062019;28;40790;-26
2023/06/23 04:49:29;;;;;;;3.90;3.47;;;;;;;;;;5063426;28;43682;-28
2023/06/23 04:51:57;;;;;;;4.22;3.83;;;;;;;;;;5063694;28;40925;-28
2023/06/23 04:54:26;;;;;;;3.97;3.58;;;;;;;;;;5061566;28;42228;-27
2023/06/23 04:57:00;;;;;;;4.35;3.95;;;;;;;;;;5063675;28;43014;-26
2023/06/23 04:59:31;;;;;;;3.78;3.30;;;;;;;;;;5063450;28;41298;-26
2023/06/23 05:01:59;;;;;;;4.65;4.25;;;;;;;;;;5065687;28;43643;-28
2023/06/23 05:04:27;;;;;;;4.00;3.60;;;;;;;;;;5065604;28;44118;-31
2023/06/23 05:06:55;;;;;;;4.25;3.85;;;;;;;;;;5067769;28;40550;-27
2023/06/23 05:09:23;;;;;;;4.63;3.95;;;;;;;;;;5064694;28;43588;-26
2023/06/23 05:11:51;;;;;;;4.75;4.13;;;;;;;;;;5067661;28;45931;-26
2023/06/23 05:14:21;;;;;;;5.32;4.82;;;;;;;;;;5061657;28;42618;-26
2023/06/23 05:16:49;;;;;;;4.80;4.20;;;;;;;;;;5065136;28;43696;-27
2023/06/23 05:19:17;;;;;;;4.75;4.30;;;;;;;;;;5066509;28;41014;-26
2023/06/23 05:21:45;;;;;;;4.10;3.70;;;;;;;;;;5066364;28;43646;-26
2023/06/23 05:24:13;;;;;;;4.38;3.95;;;;;;;;;;5065837;28;44010;-26
2023/06/23 05:26:41;;;;;;;4.90;4.00;;;;;;;;;;5064552;28;40189;-27
2023/06/23 05:29:09;;;;;;;4.20;3.80;;;;;;;;;;5063175;28;42392;-25
2023/06/23 05:31:39;;;;;;;4.85;4.30;;;;;;;;;;5078788;28;42996;-26
2023/06/23 05:34:07;;;;;;;5.38;4.10;;;;;;;;;;5066389;28;40628;-26
2023/06/23 05:36:35;;;;;;;5.20;4.40;;;;;;;;;;5063692;28;43199;-27
2023/06/23 05:39:03;;;;;;;4.28;3.88;;;;;;;;;;5063421;28;40285;-27
2023/06/23 05:41:31;;;;;;;4.57;4.18;;;;;;;;;;5062483;28;43224;-26
2023/06/23 05:43:59;;;;;;;4.47;4.03;;;;;;;;;;5061865;28;42548;-28
2023/06/23 05:46:28;;;;;;;4.55;4.03;;;;;;;;;;5065232;28;40081;-26
2023/06/23 05:48:59;;;;;;;4.47;4.05;;;;;;;;;;5064852;28;42714;-27
2023/06/23 05:51:28;;;;;;;5.20;4.15;;;;;;;;;;5064474;28;43179;-26
2023/06/23 05:53:57;;;;;;;4.85;4.32;;;;;;;;;;5063715;28;41633;-28
2023/06/23 05:56:28;;;;;;;4.63;4.15;;;;;;;;;;5065000;28;43331;-27
2023/06/23 05:58:57;;;;;;;4.70;4.25;;;;;;;;;;5062951;28;40401;-27
2023/06/23 06:01:25;;;;;;;5.55;4.20;;;;;;;;;;5064658;28;42679;-27
2023/06/23 06:03:58;;;;;;;4.38;3.97;;;;;;;;;;5058888;28;43081;-27
2023/06/23 06:06:27;;;;;;;4.57;4.18;;;;;;;;;;5060852;28;40991;-26
2023/06/23 06:08:57;;;;;;;4.88;4.20;;;;;;;;;;5066691;28;42791;-27
2023/06/23 06:11:25;;;;;;;5.18;4.05;;;;;;;;;;5062994;28;43607;-26
2023/06/23 06:13:53;;;;;;;4.75;4.03;;;;;;;;;;5065177;28;40011;-26
2023/06/23 06:16:21;;;;;;;5.40;4.25;;;;;;;;;;5064419;28;42885;-27
2023/06/23 06:18:49;;;;;;;4.90;4.40;;;;;;;;;;5064776;28;40986;-27
2023/06/23 06:21:17;;;;;;;7.10;4.82;;;;;;;;;;5064747;28;43712;-27
2023/06/23 06:23:46;;;;;;;5.75;4.80;;;;;;;;;;5063747;28;43386;-26
2023/06/23 06:26:14;;;;;;;6.53;5.15;;;;;;;;;;5060453;28;41235;-26
2023/06/23 06:28:42;;;;;;;5.93;5.28;;;;;;;;;;5063760;28;42131;-27
2023/06/23 06:31:10;;;;;;;7.50;4.82;;;;;;;;;;5065436;28;42599;-27
2023/06/23 06:33:38;;;;;;;6.07;4.88;;;;;;;;;;5062135;28;39905;-26
2023/06/23 06:36:07;;;;;;;7.07;4.88;;;;;;;;;;5065457;28;42168;-27
2023/06/23 06:38:35;;;;;;;6.28;4.85;;;;;;;;;;5063997;28;44494;-27
2023/06/23 06:41:05;;;;;;;4.95;4.05;;;;;;;;;;5060890;28;43347;-26
2023/06/23 06:43:33;;;;;;;7.15;4.70;;;;;;;;;;5063433;28;43389;-26
2023/06/23 06:46:02;;;;;;;4.90;4.32;;;;;;;;;;5061451;28;41465;-26
2023/06/23 06:48:30;;;;;;;4.82;4.32;;;;;;;;;;5063586;28;42814;-28
2023/06/23 06:51:01;;;;;;;7.35;4.53;;;;;;;;;;5059165;28;43049;-26
2023/06/23 06:53:29;;;;;;;5.93;4.60;;;;;;;;;;5063345;28;41286;-27
2023/06/23 06:55:57;;;;;;;5.68;4.20;;;;;;;;;;5064270;28;42410;-26
2023/06/23 06:58:27;;;;;;;4.53;4.07;;;;;;;;;;5063641;28;43375;-28
2023/06/23 07:00:55;;;;;;;4.70;4.20;;;;;;;;;;5060870;28;41934;-26
2023/06/23 07:03:23;;;;;;;4.32;3.90;;;;;;;;;;5064268;28;43520;-26
2023/06/23 07:05:51;;;;;;;6.32;4.03;;;;;;;;;;5064559;28;39915;-26
2023/06/23 07:08:19;;;;;;;5.47;4.05;;;;;;;;;;5063054;28;43567;-26
2023/06/23 07:10:47;;;;;;;4.63;3.97;;;;;;;;;;5064647;28;42241;-26
2023/06/23 07:13:15;;;;;;;4.75;3.55;;;;;;;;;;5063767;28;39786;-26
2023/06/23 07:15:44;;;;;;;4.03;3.63;;;;;;;;;;5062484;28;42586;-26
2023/06/23 07:18:12;;;;;;;5.47;3.53;;;;;;;;;;5064366;28;44508;-26
2023/06/23 07:20:40;;;;;;;3.75;3.35;;;;;;;;;;5063672;28;41427;-26
2023/06/23 07:23:09;;;;;;;5.13;3.70;;;;;;;;;;5062172;28;42927;-26
2023/06/23 07:25:37;;;;;;;3.70;3.25;;;;;;;;;;5063086;28;40609;-26
2023/06/23 07:28:05;;;;;;;4.82;3.47;;;;;;;;;;5065094;28;42697;-28
2023/06/23 07:30:33;;;;;;;4.30;3.90;;;;;;;;;;5061542;28;44243;-27
2023/06/23 07:33:03;;;;;;;6.00;3.10;;;;;;;;;;5063276;28;42306;-27
2023/06/23 07:35:31;;;;;;;4.95;3.92;;;;;;;;;;5062350;28;43719;-27
2023/06/23 07:37:59;;;;;;;3.88;3.38;;;;;;;;;;5063087;28;44406;-27
2023/06/23 07:40:27;;;;;;;5.07;3.45;;;;;;;;;;5061928;28;40328;-27
2023/06/23 07:42:55;;;;;;;4.15;3.53;;;;;;;;;;5063465;28;43215;-26
2023/06/23 07:45:23;;;;;;;6.20;3.40;;;;;;;;;;5063725;28;43472;-27
2023/06/23 07:47:51;;;;;;;5.72;3.40;;;;;;;;;;5063413;28;43559;-26
2023/06/23 07:50:21;;;;;;;4.68;3.38;;;;;;;;;;5063246;28;44168;-26
2023/06/23 07:52:52;;;;;;;3.42;2.90;;;;;;;;;;5062410;28;40361;-31
2023/06/23 07:55:20;;;;;;;3.05;2.72;;;;;;;;;;5062898;28;42781;-27
2023/06/23 07:57:49;;;;;;;4.22;3.17;;;;;;;;;;5061971;28;43562;-26
2023/06/23 08:00:17;;;;;;;3.85;3.28;;;;;;;;;;5063768;28;40372;-26
2023/06/23 08:02:45;;;;;;;3.30;3.00;;;;;;;;;;5063396;28;42838;-27
2023/06/23 08:05:13;;;;;;;5.97;3.15;;;;;;;;;;5063741;28;43056;-26
2023/06/23 08:07:44;;;;;;;3.22;3.00;;;;;;;;;;5063526;28;43205;-26
2023/06/23 08:10:12;;;;;;;4.40;3.25;;;;;;;;;;5060708;28;44429;-26
2023/06/23 08:12:40;;;;;;;5.47;3.45;;;;;;;;;;5063379;28;40884;-26
2023/06/23 08:15:09;;;;;;;5.40;3.42;;;;;;;;;;5062771;28;42512;-27
2023/06/23 08:17:37;;;;;;;5.45;3.10;;;;;;;;;;5063057;28;44118;-27
2023/06/23 08:20:05;;;;;;;9.48;3.15;;;;;;;;;;5061960;28;40491;-26
2023/06/23 08:22:33;;;;;;;3.22;2.92;;;;;;;;;;5061446;28;42260;-29
2023/06/23 08:25:04;;;;;;;3.40;3.10;;;;;;;;;;5059263;28;43365;-27
2023/06/23 08:27:32;;;;;;;4.63;3.33;;;;;;;;;;5061823;28;39612;-27
2023/06/23 08:30:00;;;;;;;4.53;3.53;;;;;;;;;;5063118;28;44131;-27
2023/06/23 08:32:27;;;;;;;3.85;2.97;;;;;;;;;;5060445;28;39908;-26
2023/06/23 08:34:56;;;;;;;5.32;3.03;;;;;;;;;;5062751;28;42104;-26
2023/06/23 08:37:24;;;;;;;5.32;3.58;;;;;;;;;;5063202;28;41159;-27
2023/06/23 08:39:52;;;;;;;7.38;3.20;;;;;;;;;;5067181;28;41068;-27
2023/06/23 08:42:21;;;;;;;5.97;3.05;;;;;;;;;;5065035;28;43622;-27
2023/06/23 08:44:49;;;;;;;3.88;3.00;;;;;;;;;;5065590;28;43121;-27
2023/06/23 08:47:17;;;;;;;3.17;2.88;;;;;;;;;;5067025;28;41601;-26
2023/06/23 08:49:45;;;;;;;3.95;2.80;;;;;;;;;;5065792;28;42479;-26
2023/06/23 08:52:14;;;;;;;3.25;2.90;;;;;;;;;;5066997;28;41438;-26
2023/06/23 08:54:42;;;;;;;4.50;3.10;;;;;;;;;;5064933;28;43701;-26
2023/06/23 08:57:10;;;;;;;4.28;3.03;;;;;;;;;;5060466;28;44774;-26
2023/06/23 08:59:39;;;;;;;3.13;2.83;;;;;;;;;;5064737;28;41194;-27
2023/06/23 09:02:07;;;;;;;34.10;3.95;;;;;;;;;;5066118;28;42699;-26
2023/06/23 09:04:35;;;;;;;3.33;2.65;;;;;;;;;;5062672;28;44482;-24
2023/06/23 09:07:03;;;;;;;6.97;3.65;;;;;;;;;;5065668;28;40391;-25
2023/06/23 09:09:32;;;;;;;4.82;2.95;;;;;;;;;;5065373;28;42732;-26
2023/06/23 09:12:02;;;;;;;3.13;2.72;;;;;;;;;;5065382;28;43269;-26
2023/06/23 09:14:30;;;;;;;3.35;2.90;;;;;;;;;;5063900;28;42727;-26
2023/06/23 09:16:59;;;;;;;2.80;2.60;;;;;;;;;;5064970;28;43651;-27
2023/06/23 09:19:27;;;;;;;3.25;2.90;;;;;;;;;;5066068;28;39912;-27
2023/06/23 09:21:55;;;;;;;2.95;2.53;;;;;;;;;;5064380;28;43177;-26
2023/06/23 09:24:24;;;;;;;3.85;2.63;;;;;;;;;;5065938;28;43910;-26
2023/06/23 09:26:52;;;;;;;3.10;2.80;;;;;;;;;;5066769;28;40345;-26
2023/06/23 09:29:20;;;;;;;3.05;2.80;;;;;;;;;;5064365;28;43351;-26
2023/06/23 09:31:49;;;;;;;2.72;2.53;;;;;;;;;;5066658;28;43442;-27
2023/06/23 09:34:22;;;;;;;2.92;2.63;;;;;;;;;;5064127;28;40530;-26
2023/06/23 09:36:50;;;;;;;3.08;2.80;;;;;;;;;;5064932;28;43808;-26
2023/06/23 09:39:18;;;;;;;3.72;2.53;;;;;;;;;;5065186;28;41597;-26
2023/06/23 09:41:47;;;;;;;3.28;2.78;;;;;;;;;;5066260;28;42186;-26
2023/06/23 09:44:20;;;;;;;2.83;2.55;;;;;;;;;;5061684;28;43899;-26
2023/06/23 09:46:47;;;;;;;2.40;2.20;;;;;;;;;;5065392;28;40406;-26
2023/06/23 09:49:15;;;;;;;2.50;2.30;;;;;;;;;;5065799;28;42332;-29
2023/06/23 09:51:47;;;;;;;2.67;2.47;;;;;;;;;;5064010;28;43442;-26
2023/06/23 09:54:15;;;;;;;2.72;2.53;;;;;;;;;;5063610;28;40366;-26
2023/06/23 09:56:43;;;;;;;2.92;2.63;;;;;;;;;;5065044;28;43312;-27
2023/06/23 09:59:11;;;;;;;3.03;2.72;;;;;;;;;;5066042;28;40552;-26
2023/06/23 10:01:39;;;;;;;3.33;2.45;;;;;;;;;;5063931;28;42620;-26
2023/06/23 10:04:07;;;;;;;3.10;2.80;;;;;;;;;;5065545;28;43667;-27
2023/06/23 10:06:37;;;;;;;3.40;2.35;;;;;;;;;;5064630;28;41215;-26
2023/06/23 10:09:08;;;;;;;2.83;2.50;;;;;;;;;;5066231;28;43589;-26
2023/06/23 10:11:36;;;;;;;2.85;2.58;;;;;;;;;;5061704;28;43170;-28
2023/06/23 10:14:06;;;;;;;2.70;2.50;;;;;;;;;;5064745;28;40502;-27
2023/06/23 10:16:34;;;;;;;2.70;2.33;;;;;;;;;;5066152;28;42470;-29
2023/06/23 10:19:02;;;;;;;2.83;2.53;;;;;;;;;;5064268;28;40450;-26
2023/06/23 10:21:30;;;;;;;2.72;2.53;;;;;;;;;;5064916;28;42613;-26
2023/06/23 10:23:59;;;;;;;2.42;2.22;;;;;;;;;;5064830;28;44010;-26
2023/06/23 10:26:29;;;;;;;2.47;2.28;;;;;;;;;;5061498;28;41675;-26
2023/06/23 10:28:58;;;;;;;2.70;2.50;;;;;;;;;;5060189;28;42803;-26
2023/06/23 10:31:27;;;;;;;2.92;2.28;;;;;;;;;;5063884;28;43586;-27
2023/06/23 10:33:56;;;;;;;15.75;3.20;;;;;;;;;;5066197;28;41246;-26
2023/06/23 10:36:23;;;;;;;15.63;2.70;;;;;;;;;;5064236;28;42316;-27
2023/06/23 10:38:52;;;;;;;10.32;3.30;;;;;;;;;;5065574;28;43021;-26
2023/06/23 10:41:20;;;;;;;7.57;2.83;;;;;;;;;;5064283;28;43294;-27
2023/06/23 10:43:50;;;;;;;7.57;2.63;;;;;;;;;;5064250;28;44101;-26
2023/06/23 10:46:17;;;;;;;8.20;2.90;;;;;;;;;;5060814;28;40378;-26
2023/06/23 10:48:45;;;;;;;7.80;2.80;;;;;;;;;;5064778;28;43650;-27
2023/06/23 10:51:15;;;;;;;5.38;2.20;;;;;;;;;;5066592;28;21529;-26
2023/06/23 10:53:51;;;;;;;2.80;2.40;;;;;;;;;;5063002;28;40368;-27
2023/06/23 10:56:29;;;;;;;7.53;2.38;;;;;;;;;;5061472;28;42737;-25
2023/06/23 10:58:59;;;;;;;8.45;2.38;;;;;;;;;;5059153;28;42946;-26
2023/06/23 11:01:27;;;;;;;5.18;2.50;;;;;;;;;;5064749;28;40358;-26
2023/06/23 11:03:58;;;;;;;5.88;2.60;;;;;;;;;;5059009;28;43396;-26
2023/06/23 11:06:26;;;;;;;3.28;2.53;;;;;;;;;;5061631;28;41040;-26
2023/06/23 11:08:54;;;;;;;3.20;2.83;;;;;;;;;;5063771;28;41548;-26
2023/06/23 11:11:30;;;;;;;3.25;2.75;;;;;;;;;;5061214;28;44657;-27
2023/06/23 11:13:59;;;;;;;3.92;2.85;;;;;;;;;;5060985;28;40214;-26
2023/06/23 11:16:28;;;;;;;2.65;2.45;;;;;;;;;;5063007;28;42704;-28
2023/06/23 11:18:57;;;;;;;2.72;2.33;;;;;;;;;;5061224;28;42384;-26
2023/06/23 11:21:32;;;;;;;2.85;2.30;;;;;;;;;;5060225;28;40667;-26
2023/06/23 11:24:12;;;;;;;2.50;2.25;;;;;;;;;;5059957;28;42762;-26
2023/06/23 11:26:44;;;;;;;4.32;2.45;;;;;;;;;;5062439;28;40467;-25
2023/06/23 11:29:14;;;;;;;3.40;2.35;;;;;;;;;;5061437;28;43342;-26
2023/06/23 11:31:57;;;;;;;3.58;2.20;;;;;;;;;;5062588;28;43157;-26
2023/06/23 11:34:25;;;;;;;3.22;2.17;;;;;;;;;;5049930;28;40111;-26
2023/06/23 11:36:55;;;;;;;2.95;2.40;;;;;;;;;;5063256;28;41420;-27
2023/06/23 11:39:23;;;;;;;2.35;2.03;;;;;;;;;;5063148;28;44740;-26
2023/06/23 11:41:51;;;;;;;2.78;2.58;;;;;;;;;;5063772;28;40525;-26
2023/06/23 11:44:22;;;;;;;4.55;2.30;;;;;;;;;;5061097;28;40987;-27
2023/06/23 11:46:51;;;;;;;2.50;2.30;;;;;;;;;;5064959;28;44144;-26
2023/06/23 11:49:19;;;;;;;2.60;2.40;;;;;;;;;;5061921;28;43519;-26
2023/06/23 11:51:47;;;;;;;3.08;2.80;;;;;;;;;;5064584;28;42984;-27
2023/06/23 11:54:15;;;;;;;3.40;2.28;;;;;;;;;;5063505;28;40382;-27
2023/06/23 11:56:43;;;;;;;2.70;2.50;;;;;;;;;;5062984;28;42626;-26
2023/06/23 11:59:12;;;;;;;2.45;2.25;;;;;;;;;;5064317;28;43778;-27
2023/06/23 12:01:42;;;;;;;2.67;2.38;;;;;;;;;;5062922;28;40255;-26
2023/06/23 12:04:10;;;;;;;2.33;2.13;;;;;;;;;;5063005;28;43257;-29
2023/06/23 12:06:38;;;;;;;2.60;2.40;;;;;;;;;;5062022;28;43715;-26
2023/06/23 12:09:06;;;;;;;2.45;2.25;;;;;;;;;;5064818;28;40929;-26
2023/06/23 12:11:37;;;;;;;2.42;2.22;;;;;;;;;;5065090;28;44451;-26
2023/06/23 12:14:05;;;;;;;2.30;2.10;;;;;;;;;;5067250;28;40877;-26
2023/06/23 12:16:37;;;;;;;2.45;2.03;;;;;;;;;;5066376;28;42742;-26
2023/06/23 12:19:06;;;;;;;2.50;2.28;;;;;;;;;;5066250;28;43469;-26
2023/06/23 12:21:36;;;;;;;2.40;2.20;;;;;;;;;;5065795;28;39998;-26
2023/06/23 12:24:04;;;;;;;3.38;2.13;;;;;;;;;;5065817;28;43418;-26
2023/06/23 12:26:32;;;;;;;2.05;1.90;;;;;;;;;;5064718;28;44702;-26
2023/06/23 12:29:08;;;;;;;2.72;1.92;;;;;;;;;;5064425;28;40406;-25
2023/06/23 12:31:37;;;;;;;2.70;1.92;;;;;;;;;;5063890;28;44534;-26
2023/06/23 12:34:07;;;;;;;1.88;1.67;;;;;;;;;;5065098;28;40889;-27
2023/06/23 12:36:34;;;;;;;2.65;2.25;;;;;;;;;;5062755;28;43197;-27
2023/06/23 12:39:02;;;;;;;2.38;2.15;;;;;;;;;;5059414;28;43261;-27
2023/06/23 12:41:31;;;;;;;2.20;2.05;;;;;;;;;;5057847;28;40512;-25
2023/06/23 12:43:59;;;;;;;2.90;1.90;;;;;;;;;;5062458;28;43410;-25
2023/06/23 12:46:28;;;;;;;2.58;2.17;;;;;;;;;;5058584;28;42854;-25
2023/06/23 12:48:56;;;;;;;2.20;1.98;;;;;;;;;;5059820;28;42359;-25
2023/06/23 12:51:34;;;;;;;2.20;2.00;;;;;;;;;;5058528;28;43709;-26
2023/06/23 12:54:03;;;;;;;2.30;2.10;;;;;;;;;;5061671;28;40844;-25
2023/06/23 12:56:31;;;;;;;1.98;1.88;;;;;;;;;;5062289;28;42248;-26
2023/06/23 12:58:59;;;;;;;2.08;1.80;;;;;;;;;;5060548;28;43368;-25
2023/06/23 13:01:27;;;;;;;2.28;2.08;;;;;;;;;;5062371;28;41198;-25
2023/06/23 13:03:56;;;;;;;2.10;1.85;;;;;;;;;;5059602;28;42549;-26
2023/06/23 13:06:24;;;;;;;2.28;2.08;;;;;;;;;;5060637;28;43738;-25
2023/06/23 13:08:54;;;;;;;2.47;2.28;;;;;;;;;;5059527;28;40302;-26
2023/06/23 13:11:23;;;;;;;4.97;2.10;;;;;;;;;;5057710;28;43797;-25
2023/06/23 13:13:54;;;;;;;7.75;2.35;;;;;;;;;;5059656;28;45845;-26
2023/06/23 13:16:22;;;;;;;7.40;2.90;;;;;;;;;;5059765;28;43313;-26
2023/06/23 13:18:50;;;;;;;9.15;2.60;;;;;;;;;;5060772;28;43234;-27
2023/06/23 13:21:18;;;;;;;4.63;2.53;;;;;;;;;;5056868;28;39820;-26
2023/06/23 13:23:46;;;;;;;6.68;2.88;;;;;;;;;;5061097;28;41844;-27
2023/06/23 13:26:15;;;;;;;3.50;2.47;;;;;;;;;;5060872;28;43109;-28
2023/06/23 13:28:43;;;;;;;3.60;2.75;;;;;;;;;;5066555;28;41322;-26
2023/06/23 13:31:11;;;;;;;5.22;2.63;;;;;;;;;;5064292;28;44032;-27
2023/06/23 13:33:39;;;;;;;5.00;3.17;;;;;;;;;;5064408;28;43906;-28
2023/06/23 13:36:07;;;;;;;3.40;3.10;;;;;;;;;;5065462;28;40659;-27
2023/06/23 13:38:36;;;;;;;4.07;3.20;;;;;;;;;;5067569;28;43357;-26
2023/06/23 13:41:03;;;;;;;3.88;2.90;;;;;;;;;;5064940;28;41239;-29
2023/06/23 13:43:33;;;;;;;6.25;3.42;;;;;;;;;;5063972;28;42676;-25
2023/06/23 13:46:01;;;;;;;4.68;3.28;;;;;;;;;;5061141;28;44048;-24
2023/06/23 13:48:29;;;;;;;3.92;3.47;;;;;;;;;;5066125;28;39644;-25
2023/06/23 13:50:58;;;;;;;3.95;3.55;;;;;;;;;;5067110;28;43371;-27
2023/06/23 13:53:26;;;;;;;12.45;3.85;;;;;;;;;;5064393;28;44275;-25
2023/06/23 13:55:54;;;;;;;6.97;3.85;;;;;;;;;;5065066;28;40632;-25
2023/06/23 13:58:22;;;;;;;7.07;3.60;;;;;;;;;;5064738;28;43545;-24
2023/06/23 14:00:53;;;;;;;7.03;3.33;;;;;;;;;;5064726;28;41267;-27
2023/06/23 14:03:21;;;;;;;5.63;3.33;;;;;;;;;;5061214;28;42426;-25
2023/06/23 14:05:49;;;;;;;5.60;3.47;;;;;;;;;;5065434;28;43822;-26
2023/06/23 14:08:22;;;;;;;5.45;3.30;;;;;;;;;;5062683;28;40261;-25
2023/06/23 14:10:50;;;;;;;5.20;3.50;;;;;;;;;;5063660;28;42920;-25
2023/06/23 14:13:18;;;;;;;4.90;3.40;;;;;;;;;;5064592;28;43165;-29
2023/06/23 14:15:46;;;;;;;6.85;3.70;;;;;;;;;;5052053;28;40068;-27
2023/06/23 14:18:15;;;;;;;7.80;3.83;;;;;;;;;;5063812;28;41977;-27
2023/06/23 14:20:45;;;;;;;5.60;4.10;;;;;;;;;;5066198;28;33051;-29
2023/06/23 14:23:13;;;;;;;3.85;3.42;;;;;;;;;;5063851;28;43247;-26
2023/06/23 14:25:41;;;;;;;4.32;3.67;;;;;;;;;;5062430;28;43635;-26
2023/06/23 14:28:09;;;;;;;4.25;3.85;;;;;;;;;;5064003;28;40362;-27
2023/06/23 14:30:37;;;;;;;6.30;4.15;;;;;;;;;;5062703;28;42741;-29
2023/06/23 14:33:06;;;;;;;6.13;3.72;;;;;;;;;;5064251;28;43423;-27
2023/06/23 14:35:35;;;;;;;5.20;3.53;;;;;;;;;;5063793;28;41490;-27
2023/06/23 14:38:05;;;;;;;4.43;3.70;;;;;;;;;;5063041;28;43242;-28
2023/06/23 14:40:33;;;;;;;4.03;3.63;;;;;;;;;;5064417;28;43411;-25
2023/06/23 14:43:01;;;;;;;4.15;3.75;;;;;;;;;;5065309;28;43106;-29
2023/06/23 14:45:34;;;;;;;4.63;3.38;;;;;;;;;;5062555;28;44008;-24
2023/06/23 14:48:02;;;;;;;7.45;3.70;;;;;;;;;;5055631;28;40110;-27
2023/06/23 14:50:30;;;;;;;5.00;3.60;;;;;;;;;;5064086;28;42708;-27
2023/06/23 14:53:00;;;;;;;7.25;3.50;;;;;;;;;;5066003;28;43328;-25